Hauptseite
METAR-TAF:

METAR-TAF

Flughäfen :

Flughafen Marka International

Amman, Jordanien

Breite: 31-59N, Länge: 035-59E, Höhe: 767 m

Beobachtung

Neuester Wetterbericht von vor 10 Minuten, um 04:00 UTC
Wind 3 kt aus West
Temperatur 23°C
Luftfeuchtigkeit 29%
Luftdruck 1015 hPa
Sichtweite: 6000 m

METAR: OJAM 230400Z 27003KT 6000 NSC 23/04 Q1015 NOSIG

Zeit: 07:10 (04:10 UTC)

Prognose

Neuester Wetterbericht von vor 5 Stunden und 39 Minuten, um 22:31 UTC
Gültige Prognose vom 23 um 00 UTC bis 24 um 06 UTC
Wind 8 kt aus West
Sichtweite: 5000 m
trockener Dunst
Zeitweise
vom 23 um 12 UTC bis 23 um 18 UTC
Wind 18 kt aus West/Nordwest
Sichtweite: 5000 m
Staubtreiben

TAF: OJAM 222231Z 2300/2406 28008KT 5000 HZ NSC TEMPO 2312/2318 30018KT 5000 BLDU

Wetterbeobachtungen und Prognosen von mehr als 4000 Flughäfen (METAR und TAF Bericht).

Die verfügbaren Stationen werden durch gelbe und rote Markierungen auf der Karte dargestellt.

Führen Sie die Maus auf sie, um den Namen der Station zu sehen.

Darauf klicken, um die Beobachtung von Wetterbeobachtungen und Prognosen zu sehen.

Um die Karte zu ändern : klicken Sie auf den grünen Tasten mit einem schwarzen Kreuz Zum Vergrößern, auf den grünen Button mit einem Gedankenstrich zu verkleinern, oder auf die grünen Pfeile für benachbarte Karten.


METAR-TAF: